createdAt,value
2019-06-26T00:01:52.064Z,88.53
2019-06-26T00:04:20.735Z,88.93
2019-06-26T00:06:49.456Z,89.34
2019-06-26T00:09:17.858Z,89.44
2019-06-26T00:11:46.254Z,89.04
2019-06-26T00:14:14.664Z,89.17
2019-06-26T00:16:43.460Z,88.25
2019-06-26T00:19:12.151Z,88.25
2019-06-26T00:21:40.536Z,88.94
2019-06-26T00:24:10.762Z,88.68
2019-06-26T00:26:39.143Z,88.65
2019-06-26T00:29:07.558Z,88.82
2019-06-26T00:31:35.950Z,89.01
2019-06-26T00:34:04.539Z,89.19
2019-06-26T00:36:32.925Z,89.58
2019-06-26T00:39:01.356Z,89.82
2019-06-26T00:41:29.757Z,90.39
2019-06-26T00:43:58.512Z,90.33
2019-06-26T00:46:26.915Z,90.00
2019-06-26T00:48:55.670Z,89.38
2019-06-26T00:51:24.460Z,89.38
2019-06-26T00:53:53.147Z,89.53
2019-06-26T00:56:21.543Z,89.19
2019-06-26T00:58:49.958Z,88.98
2019-06-26T01:01:18.362Z,89.25
2019-06-26T01:03:48.646Z,89.69
2019-06-26T01:06:34.904Z,89.99
2019-06-26T01:09:03.930Z,89.94
2019-06-26T01:11:32.309Z,89.85
2019-06-26T01:14:00.728Z,89.89
2019-06-26T01:16:29.484Z,89.43
2019-06-26T01:18:58.238Z,89.11
2019-06-26T01:21:26.737Z,89.08
2019-06-26T01:23:55.151Z,89.67
2019-06-26T01:26:23.550Z,89.47
2019-06-26T01:28:51.954Z,89.47
2019-06-26T01:31:20.447Z,89.38
2019-06-26T01:33:48.891Z,89.38
2019-06-26T01:36:17.608Z,89.68
2019-06-26T01:38:46.057Z,89.68
2019-06-26T01:41:14.799Z,89.39
2019-06-26T01:43:43.294Z,89.58
2019-06-26T01:46:11.945Z,89.60
2019-06-26T01:48:40.351Z,89.04
2019-06-26T01:51:08.749Z,89.48
2019-06-26T01:53:37.189Z,89.74
2019-06-26T01:56:05.883Z,89.74
2019-06-26T01:58:34.566Z,90.10
2019-06-26T02:01:03.010Z,90.19
2019-06-26T02:03:31.727Z,90.68
2019-06-26T02:06:00.418Z,90.48
2019-06-26T02:08:28.914Z,90.43
2019-06-26T02:10:57.343Z,90.26
2019-06-26T02:13:26.089Z,90.20
2019-06-26T02:15:54.499Z,90.67
2019-06-26T02:18:42.401Z,90.98
2019-06-26T02:21:10.824Z,91.28
2019-06-26T02:23:39.326Z,90.81
2019-06-26T02:26:07.732Z,90.58
2019-06-26T02:28:36.122Z,90.55
2019-06-26T02:31:04.519Z,90.61
2019-06-26T02:33:32.941Z,90.51
2019-06-26T02:36:01.436Z,90.54
2019-06-26T02:38:29.889Z,90.23
2019-06-26T02:40:58.615Z,90.83
2019-06-26T02:43:27.345Z,91.57
2019-06-26T02:45:55.760Z,91.38
2019-06-26T02:48:24.150Z,91.84
2019-06-26T02:50:52.630Z,91.99
2019-06-26T02:53:21.037Z,91.51
2019-06-26T02:55:49.433Z,91.57
2019-06-26T02:58:17.842Z,90.85
2019-06-26T03:00:46.263Z,90.89
2019-06-26T03:03:15.073Z,90.75
2019-06-26T03:05:43.750Z,90.85
2019-06-26T03:08:12.179Z,91.09
2019-06-26T03:10:40.934Z,89.98
2019-06-26T03:13:09.402Z,90.63
2019-06-26T03:15:37.818Z,91.42
2019-06-26T03:18:06.317Z,90.69
2019-06-26T03:20:38.123Z,91.01
2019-06-26T03:23:06.516Z,91.27
2019-06-26T03:25:34.949Z,91.18
2019-06-26T03:28:03.429Z,91.07
2019-06-26T03:30:31.859Z,91.20
2019-06-26T03:33:01.344Z,91.03
2019-06-26T03:35:29.747Z,91.25
2019-06-26T03:37:58.144Z,91.54
2019-06-26T03:40:26.552Z,91.63
2019-06-26T03:42:54.955Z,91.56
2019-06-26T03:45:26.086Z,91.71
2019-06-26T03:47:54.283Z,91.62
2019-06-26T03:50:22.968Z,91.44
2019-06-26T03:52:51.720Z,91.57
2019-06-26T03:55:20.201Z,91.97
2019-06-26T03:57:48.925Z,92.21
2019-06-26T04:00:38.087Z,91.70
2019-06-26T04:03:06.795Z,91.72
2019-06-26T04:05:35.686Z,91.95
2019-06-26T04:08:04.658Z,91.85
2019-06-26T04:10:33.513Z,91.68
2019-06-26T04:13:02.019Z,91.60
2019-06-26T04:15:41.296Z,91.65
2019-06-26T04:18:00.954Z,91.46
2019-06-26T04:20:29.418Z,91.44
2019-06-26T04:22:58.223Z,91.70
2019-06-26T04:25:27.154Z,91.36
2019-06-26T04:27:55.904Z,91.42
2019-06-26T04:30:25.140Z,91.01
2019-06-26T04:32:53.912Z,90.81
2019-06-26T04:35:22.699Z,90.94
2019-06-26T04:37:51.146Z,90.97
2019-06-26T04:40:20.547Z,90.72
2019-06-26T04:42:49.089Z,90.69
2019-06-26T04:45:18.412Z,90.39
2019-06-26T04:47:47.012Z,89.64
2019-06-26T04:50:16.158Z,89.57
2019-06-26T04:52:44.851Z,89.21
2019-06-26T04:55:13.858Z,88.61
2019-06-26T04:57:42.598Z,88.23
2019-06-26T05:00:13.331Z,87.95
2019-06-26T05:02:42.130Z,87.93
2019-06-26T05:05:11.210Z,88.04
2019-06-26T05:07:39.703Z,87.67
2019-06-26T05:10:10.308Z,87.39
2019-06-26T05:12:39.015Z,87.41
2019-06-26T05:15:08.946Z,87.17
2019-06-26T05:17:37.423Z,86.61
2019-06-26T05:20:07.958Z,86.30
2019-06-26T05:22:36.723Z,85.67
2019-06-26T05:25:08.923Z,85.24
2019-06-26T05:27:37.592Z,84.75
2019-06-26T05:30:08.115Z,84.55
2019-06-26T05:32:37.315Z,83.59
2019-06-26T05:35:07.419Z,83.04
2019-06-26T05:37:35.826Z,82.25
2019-06-26T05:40:07.272Z,82.15
2019-06-26T05:42:35.682Z,81.89
2019-06-26T05:45:05.396Z,81.37
2019-06-26T05:47:34.182Z,81.50
2019-06-26T05:50:02.832Z,81.24
2019-06-26T05:52:31.249Z,80.67
2019-06-26T05:54:59.896Z,79.47
2019-06-26T05:57:28.305Z,79.66
2019-06-26T05:59:56.726Z,78.88
2019-06-26T06:02:25.131Z,78.15
2019-06-26T06:04:54.588Z,76.48
2019-06-26T06:07:23.131Z,76.78
2019-06-26T06:09:51.705Z,77.17
2019-06-26T06:12:20.114Z,77.32
2019-06-26T06:14:48.528Z,77.36
2019-06-26T06:17:17.256Z,76.81
2019-06-26T06:19:45.887Z,76.14
2019-06-26T06:22:14.750Z,75.63
2019-06-26T06:24:43.147Z,76.41
2019-06-26T06:27:11.579Z,75.93
2019-06-26T06:29:40.224Z,75.53
2019-06-26T06:32:08.731Z,75.11
2019-06-26T06:34:37.200Z,73.43
2019-06-26T06:37:05.599Z,74.68
2019-06-26T06:39:34.009Z,73.69
2019-06-26T06:42:02.684Z,74.00
2019-06-26T06:44:31.377Z,73.05
2019-06-26T06:47:04.242Z,72.91
2019-06-26T06:49:30.194Z,72.91
2019-06-26T06:51:58.591Z,72.05
2019-06-26T06:54:26.995Z,71.66
2019-06-26T06:56:55.395Z,70.98
2019-06-26T06:59:23.791Z,71.51
2019-06-26T07:01:52.189Z,70.81
2019-06-26T07:04:20.643Z,70.97
2019-06-26T07:06:49.032Z,71.63
2019-06-26T07:09:17.437Z,72.25
2019-06-26T07:11:46.102Z,72.51
2019-06-26T07:14:14.501Z,71.83
2019-06-26T07:16:42.914Z,71.64
2019-06-26T07:19:11.305Z,72.67
2019-06-26T07:21:39.723Z,69.73
2019-06-26T07:24:08.423Z,70.70
2019-06-26T07:26:36.822Z,71.22
2019-06-26T07:29:05.223Z,72.00
2019-06-26T07:31:33.708Z,71.00
2019-06-26T07:34:02.120Z,71.54
2019-06-26T07:36:30.500Z,70.23
2019-06-26T07:38:58.929Z,70.64
2019-06-26T07:41:27.592Z,70.12
2019-06-26T07:43:56.009Z,70.35
2019-06-26T07:46:24.383Z,68.87
2019-06-26T07:48:52.782Z,68.30
2019-06-26T07:51:21.502Z,68.05
2019-06-26T07:53:49.913Z,67.46
2019-06-26T07:56:18.575Z,67.79
2019-06-26T07:58:47.746Z,66.67
2019-06-26T08:01:16.462Z,66.82
2019-06-26T08:03:44.847Z,66.42
2019-06-26T08:06:13.527Z,67.05
2019-06-26T08:08:41.918Z,65.64
2019-06-26T08:11:10.327Z,64.03
2019-06-26T08:13:38.965Z,63.65
2019-06-26T08:16:07.375Z,63.24
2019-06-26T08:18:35.767Z,62.48
2019-06-26T08:21:12.100Z,61.53
2019-06-26T08:23:34.639Z,60.81
2019-06-26T08:26:03.102Z,59.57
2019-06-26T08:28:31.496Z,59.67
2019-06-26T08:31:00.058Z,59.50
2019-06-26T08:33:28.468Z,61.27
2019-06-26T08:35:56.878Z,59.08
2019-06-26T08:38:25.550Z,60.31
2019-06-26T08:40:53.954Z,61.16
2019-06-26T08:43:22.695Z,57.57
2019-06-26T08:45:51.390Z,58.68
2019-06-26T08:48:38.355Z,58.80
2019-06-26T08:50:50.708Z,58.28
2019-06-26T08:53:19.385Z,59.01
2019-06-26T08:55:47.778Z,59.16
2019-06-26T08:58:16.202Z,58.55
2019-06-26T09:00:45.145Z,59.24
2019-06-26T09:03:13.869Z,58.79
2019-06-26T09:05:47.881Z,59.57
2019-06-26T09:08:12.704Z,57.54
2019-06-26T09:10:44.703Z,57.95
2019-06-26T09:13:11.280Z,58.47
2019-06-26T09:15:40.062Z,57.81
2019-06-26T09:18:08.710Z,57.83
2019-06-26T09:20:39.817Z,56.52
2019-06-26T09:23:09.161Z,59.04
2019-06-26T09:25:37.930Z,56.29
2019-06-26T09:28:06.574Z,55.29
2019-06-26T09:30:34.970Z,54.43
2019-06-26T09:33:03.539Z,55.30
2019-06-26T09:35:31.927Z,54.96
2019-06-26T09:38:00.401Z,54.67
2019-06-26T09:40:31.731Z,53.92
2019-06-26T09:42:58.919Z,53.13
2019-06-26T09:45:27.767Z,53.69
2019-06-26T09:47:56.185Z,52.30
2019-06-26T09:50:24.577Z,51.88
2019-06-26T09:52:52.984Z,51.73
2019-06-26T09:55:21.712Z,52.10
2019-06-26T09:57:50.103Z,51.57
2019-06-26T10:00:21.440Z,51.87
2019-06-26T10:02:50.793Z,50.45
2019-06-26T10:05:19.535Z,51.91
2019-06-26T10:07:47.933Z,49.51
2019-06-26T10:10:16.670Z,48.60
2019-06-26T10:12:45.126Z,47.46
2019-06-26T10:15:13.994Z,49.44
2019-06-26T10:17:42.354Z,45.89
2019-06-26T10:20:11.210Z,46.01
2019-06-26T10:22:40.008Z,44.33
2019-06-26T10:25:11.448Z,43.78
2019-06-26T10:27:39.496Z,42.47
2019-06-26T10:30:08.461Z,40.46
2019-06-26T10:32:37.237Z,40.91
2019-06-26T10:35:07.239Z,41.40
2019-06-26T10:37:35.913Z,39.92
2019-06-26T10:40:04.955Z,40.65
2019-06-26T10:42:33.358Z,38.28
2019-06-26T10:45:02.097Z,37.82
2019-06-26T10:47:30.471Z,38.17
2019-06-26T10:49:59.244Z,39.86
2019-06-26T10:52:27.631Z,39.00
2019-06-26T10:54:56.027Z,42.41
2019-06-26T10:57:24.673Z,38.48
2019-06-26T10:59:55.664Z,39.83
2019-06-26T11:02:23.482Z,41.12
2019-06-26T11:04:52.171Z,41.35
2019-06-26T11:07:20.566Z,40.52
2019-06-26T11:09:49.247Z,40.62
2019-06-26T11:12:17.637Z,39.91
2019-06-26T11:14:46.043Z,37.84
2019-06-26T11:17:14.433Z,40.10
2019-06-26T11:19:44.584Z,39.61
2019-06-26T11:22:13.140Z,42.14
2019-06-26T11:24:41.885Z,38.99
2019-06-26T11:27:10.267Z,39.46
2019-06-26T11:29:38.929Z,39.35
2019-06-26T11:32:09.615Z,41.48
2019-06-26T11:34:37.460Z,38.12
2019-06-26T11:37:05.867Z,40.57
2019-06-26T11:39:34.256Z,39.51
2019-06-26T11:42:02.674Z,39.65
2019-06-26T11:44:31.143Z,41.23
2019-06-26T11:46:59.544Z,41.93
2019-06-26T11:49:27.952Z,41.06
2019-06-26T11:51:56.339Z,41.79
2019-06-26T11:54:24.730Z,36.92
2019-06-26T11:56:53.393Z,39.58
2019-06-26T11:59:21.781Z,39.04
2019-06-26T12:01:50.547Z,38.63
2019-06-26T12:04:18.943Z,37.45
2019-06-26T12:06:47.599Z,36.59
2019-06-26T12:09:15.994Z,38.55
2019-06-26T12:11:44.406Z,37.89
2019-06-26T12:14:12.802Z,36.98
2019-06-26T12:16:41.204Z,34.89
2019-06-26T12:19:09.931Z,32.36
2019-06-26T12:21:38.590Z,33.03
2019-06-26T12:24:06.985Z,33.14
2019-06-26T12:26:35.663Z,32.31
2019-06-26T12:29:04.160Z,33.41
2019-06-26T12:31:32.640Z,34.50
2019-06-26T12:34:01.303Z,32.78
2019-06-26T12:36:30.007Z,32.72
2019-06-26T12:38:58.388Z,33.65
2019-06-26T12:41:27.161Z,34.13
2019-06-26T12:43:55.553Z,30.03
2019-06-26T12:46:24.222Z,30.54
2019-06-26T12:48:52.697Z,28.20
2019-06-26T12:51:21.173Z,30.28
2019-06-26T12:53:49.874Z,30.37
2019-06-26T12:56:18.280Z,29.08
2019-06-26T12:58:46.728Z,29.69
2019-06-26T13:01:15.431Z,27.75
2019-06-26T13:03:43.828Z,27.92
2019-06-26T13:06:12.248Z,26.18
2019-06-26T13:08:40.632Z,29.94
2019-06-26T13:11:09.033Z,26.92
2019-06-26T13:13:37.431Z,26.82
2019-06-26T13:16:05.836Z,26.65
2019-06-26T13:18:34.696Z,26.84
2019-06-26T13:21:05.252Z,27.04
2019-06-26T13:23:33.603Z,26.34
2019-06-26T13:26:01.998Z,23.95
2019-06-26T13:28:30.397Z,30.32
2019-06-26T13:30:58.891Z,27.82
2019-06-26T13:33:27.330Z,27.63
2019-06-26T13:35:55.758Z,29.81
2019-06-26T13:38:27.078Z,31.22
2019-06-26T13:40:54.640Z,29.11
2019-06-26T13:43:23.035Z,29.03
2019-06-26T13:45:51.797Z,29.95
2019-06-26T13:48:20.316Z,31.03
2019-06-26T13:50:48.707Z,30.86
2019-06-26T13:53:17.122Z,29.35
2019-06-26T13:55:45.517Z,28.15
2019-06-26T13:58:13.918Z,31.75
2019-06-26T14:00:42.317Z,31.94
2019-06-26T14:03:10.822Z,31.50
2019-06-26T14:05:39.551Z,31.42
2019-06-26T14:08:07.989Z,29.73
2019-06-26T14:10:36.396Z,32.21
2019-06-26T14:13:04.900Z,29.46
2019-06-26T14:15:33.413Z,30.82
2019-06-26T14:18:01.846Z,29.00
2019-06-26T14:20:30.262Z,28.94
2019-06-26T14:22:58.704Z,27.97
2019-06-26T14:25:27.132Z,29.05
2019-06-26T14:27:55.870Z,29.99
2019-06-26T14:30:27.833Z,28.40
2019-06-26T14:32:54.870Z,28.71
2019-06-26T14:35:23.563Z,29.85
2019-06-26T14:37:52.016Z,29.82
2019-06-26T14:40:21.962Z,27.17
2019-06-26T14:42:50.393Z,29.49
2019-06-26T14:45:19.263Z,28.19
2019-06-26T14:47:48.042Z,27.53
2019-06-26T14:50:17.598Z,28.47
2019-06-26T14:52:46.179Z,30.14
2019-06-26T14:55:14.966Z,29.52
2019-06-26T14:57:43.349Z,29.02
2019-06-26T15:00:12.720Z,27.31
2019-06-26T15:02:41.161Z,30.32
2019-06-26T15:05:10.535Z,30.21
2019-06-26T15:07:39.028Z,27.85
2019-06-26T15:10:08.883Z,29.37
2019-06-26T15:12:37.860Z,26.83
2019-06-26T15:15:08.591Z,29.98
2019-06-26T15:17:37.025Z,28.21
2019-06-26T15:20:08.405Z,27.46
2019-06-26T15:22:36.799Z,29.16
2019-06-26T15:25:07.259Z,28.66
2019-06-26T15:27:35.740Z,29.37
2019-06-26T15:30:09.123Z,30.90
2019-06-26T15:32:37.549Z,32.60
2019-06-26T15:35:07.417Z,31.98
2019-06-26T15:37:36.145Z,32.14
2019-06-26T15:40:06.279Z,32.40
2019-06-26T15:42:34.996Z,32.91
2019-06-26T15:45:03.614Z,35.37
2019-06-26T15:47:32.276Z,33.11
2019-06-26T15:50:00.693Z,33.80
2019-06-26T15:52:31.520Z,35.71
2019-06-26T15:54:59.333Z,36.67
2019-06-26T15:57:27.732Z,35.14
2019-06-26T15:59:56.481Z,36.26
2019-06-26T16:02:24.918Z,34.24
2019-06-26T16:04:53.595Z,34.65
2019-06-26T16:07:21.998Z,34.91
2019-06-26T16:09:50.400Z,34.43
2019-06-26T16:12:18.795Z,35.66
2019-06-26T16:14:47.623Z,34.79
2019-06-26T16:17:17.644Z,34.32
2019-06-26T16:19:46.329Z,36.24
2019-06-26T16:22:27.784Z,35.96
2019-06-26T16:24:45.180Z,35.22
2019-06-26T16:27:13.580Z,33.48
2019-06-26T16:29:42.639Z,32.17
2019-06-26T16:32:11.215Z,34.73
2019-06-26T16:34:42.079Z,35.09
2019-06-26T16:37:09.763Z,37.24
2019-06-26T16:39:38.177Z,33.20
2019-06-26T16:42:06.606Z,34.56
2019-06-26T16:44:35.345Z,34.62
2019-06-26T16:47:03.747Z,34.08
2019-06-26T16:49:32.144Z,35.02
2019-06-26T16:52:00.910Z,34.33
2019-06-26T16:54:29.571Z,35.45
2019-06-26T16:56:57.977Z,34.65
2019-06-26T16:59:26.380Z,35.69
2019-06-26T17:01:55.140Z,35.48
2019-06-26T17:04:23.562Z,34.76
2019-06-26T17:06:52.010Z,34.42
2019-06-26T17:09:20.402Z,34.81
2019-06-26T17:11:49.166Z,35.56
2019-06-26T17:14:17.863Z,39.83
2019-06-26T17:16:46.255Z,39.04
2019-06-26T17:19:14.650Z,40.41
2019-06-26T17:21:43.074Z,38.66
2019-06-26T17:24:11.480Z,38.47
2019-06-26T17:26:39.893Z,39.39
2019-06-26T17:29:08.639Z,40.68
2019-06-26T17:31:37.325Z,43.65
2019-06-26T17:34:05.726Z,46.78
2019-06-26T17:36:34.145Z,45.06
2019-06-26T17:39:02.705Z,48.67
2019-06-26T17:41:31.094Z,47.39
2019-06-26T17:43:59.514Z,50.20
2019-06-26T17:46:27.964Z,51.63
2019-06-26T17:48:56.702Z,51.82
2019-06-26T17:51:25.225Z,50.96
2019-06-26T17:53:53.611Z,50.81
2019-06-26T17:56:22.345Z,51.44
2019-06-26T17:58:50.753Z,51.64
2019-06-26T18:01:19.535Z,54.11
2019-06-26T18:03:47.935Z,55.12
2019-06-26T18:06:16.336Z,55.19
2019-06-26T18:08:44.731Z,56.95
2019-06-26T18:11:13.159Z,57.80
2019-06-26T18:13:41.548Z,58.28
2019-06-26T18:16:09.952Z,57.90
2019-06-26T18:18:38.682Z,57.09
2019-06-26T18:21:07.488Z,57.38
2019-06-26T18:23:38.439Z,56.88
2019-06-26T18:26:12.920Z,59.04
2019-06-26T18:28:36.138Z,59.50
2019-06-26T18:31:04.618Z,61.46
2019-06-26T18:33:33.012Z,61.67
2019-06-26T18:36:01.402Z,62.79
2019-06-26T18:38:29.824Z,64.04
2019-06-26T18:40:58.269Z,64.56
2019-06-26T18:43:26.726Z,65.42
2019-06-26T18:45:55.123Z,66.16
2019-06-26T18:48:25.033Z,66.62
2019-06-26T18:50:53.581Z,66.47
2019-06-26T18:53:22.023Z,67.00
2019-06-26T18:55:50.835Z,67.53
2019-06-26T18:58:19.365Z,67.91
2019-06-26T19:00:47.985Z,67.46
2019-06-26T19:03:16.464Z,67.91
2019-06-26T19:05:45.065Z,68.30
2019-06-26T19:08:13.483Z,68.56
2019-06-26T19:10:42.264Z,68.44
2019-06-26T19:13:11.037Z,68.78
2019-06-26T19:15:39.862Z,68.75
2019-06-26T19:18:08.595Z,68.83
2019-06-26T19:20:36.998Z,69.51
2019-06-26T19:23:05.660Z,69.32
2019-06-26T19:25:34.374Z,69.48
2019-06-26T19:28:02.863Z,69.92
2019-06-26T19:30:31.530Z,70.25
2019-06-26T19:33:00.205Z,70.76
2019-06-26T19:35:28.597Z,71.38
2019-06-26T19:37:57.041Z,72.17
2019-06-26T19:40:25.465Z,72.44
2019-06-26T19:42:53.871Z,73.20
2019-06-26T19:45:22.833Z,73.33
2019-06-26T19:47:51.297Z,73.52
2019-06-26T19:50:23.341Z,73.92
2019-06-26T19:52:50.312Z,74.17
2019-06-26T19:55:18.965Z,74.08
2019-06-26T19:57:47.797Z,74.94
2019-06-26T20:00:16.621Z,75.34
2019-06-26T20:02:45.660Z,75.58
2019-06-26T20:05:14.073Z,76.13
2019-06-26T20:07:42.498Z,76.28
2019-06-26T20:10:12.757Z,76.69
2019-06-26T20:12:41.227Z,76.86
2019-06-26T20:15:09.968Z,76.94
2019-06-26T20:17:38.716Z,76.70
2019-06-26T20:20:07.879Z,74.87
2019-06-26T20:22:36.354Z,74.80
2019-06-26T20:25:07.806Z,75.30
2019-06-26T20:27:36.410Z,75.85
2019-06-26T20:30:09.539Z,75.96
2019-06-26T20:32:36.584Z,76.75
2019-06-26T20:35:06.850Z,76.69
2019-06-26T20:37:35.336Z,76.45
2019-06-26T20:40:06.000Z,76.63
2019-06-26T20:42:34.430Z,76.87
2019-06-26T20:45:03.222Z,77.20
2019-06-26T20:47:31.611Z,76.99
2019-06-26T20:50:00.017Z,77.33
2019-06-26T20:52:28.714Z,77.57
2019-06-26T20:55:02.176Z,77.35
2019-06-26T20:57:27.535Z,77.82
2019-06-26T20:59:56.044Z,78.29
2019-06-26T21:02:24.509Z,78.55
2019-06-26T21:04:52.926Z,78.98
2019-06-26T21:07:21.600Z,79.27
2019-06-26T21:09:50.012Z,78.96
2019-06-26T21:12:18.739Z,79.11
2019-06-26T21:14:47.244Z,78.85
2019-06-26T21:17:16.152Z,79.27
2019-06-26T21:19:44.761Z,79.77
2019-06-26T21:22:13.186Z,80.12
2019-06-26T21:24:41.586Z,80.07
2019-06-26T21:27:10.334Z,79.69
2019-06-26T21:29:38.840Z,80.64
2019-06-26T21:32:07.243Z,80.96
2019-06-26T21:34:35.645Z,81.24
2019-06-26T21:37:04.708Z,81.41
2019-06-26T21:39:33.323Z,81.65
2019-06-26T21:42:01.717Z,81.89
2019-06-26T21:44:30.471Z,81.93
2019-06-26T21:46:58.911Z,81.88
2019-06-26T21:49:27.431Z,82.00
2019-06-26T21:51:56.285Z,82.05
2019-06-26T21:54:25.075Z,81.95
2019-06-26T21:56:53.467Z,81.83
2019-06-26T21:59:22.154Z,82.04
2019-06-26T22:01:50.918Z,82.31
2019-06-26T22:04:19.970Z,82.26
2019-06-26T22:06:48.728Z,82.59
2019-06-26T22:09:17.446Z,82.90
2019-06-26T22:11:46.128Z,83.20
2019-06-26T22:14:15.023Z,83.46
2019-06-26T22:16:43.432Z,83.71
2019-06-26T22:19:12.049Z,83.88
2019-06-26T22:21:40.599Z,84.06
2019-06-26T22:24:09.407Z,84.45
2019-06-26T22:26:37.888Z,84.55
2019-06-26T22:29:06.353Z,84.71
2019-06-26T22:31:34.933Z,84.43
2019-06-26T22:34:03.341Z,84.24
2019-06-26T22:36:32.204Z,84.48
2019-06-26T22:39:00.609Z,84.71
2019-06-26T22:41:29.391Z,84.66
2019-06-26T22:43:57.785Z,84.55
2019-06-26T22:46:26.368Z,84.82
2019-06-26T22:48:54.770Z,84.49
2019-06-26T22:51:23.211Z,84.24
2019-06-26T22:53:51.609Z,84.38
2019-06-26T22:56:20.052Z,84.67
2019-06-26T22:58:48.438Z,85.00
2019-06-26T23:01:16.870Z,85.08
2019-06-26T23:03:45.254Z,85.22
2019-06-26T23:06:13.862Z,85.23
2019-06-26T23:08:42.598Z,85.59
2019-06-26T23:11:11.011Z,85.69
2019-06-26T23:13:39.419Z,85.59
2019-06-26T23:16:08.142Z,85.77
2019-06-26T23:18:36.545Z,86.04
2019-06-26T23:21:05.242Z,86.30
2019-06-26T23:23:33.657Z,86.01
2019-06-26T23:26:02.066Z,85.79
2019-06-26T23:28:30.469Z,86.34
2019-06-26T23:30:58.893Z,86.29
2019-06-26T23:33:27.617Z,86.53
2019-06-26T23:35:56.023Z,86.37
2019-06-26T23:38:24.439Z,86.48
2019-06-26T23:40:52.844Z,86.49
2019-06-26T23:43:21.803Z,86.54
2019-06-26T23:45:50.477Z,86.76
2019-06-26T23:48:18.884Z,87.52
2019-06-26T23:50:47.287Z,87.53
2019-06-26T23:53:15.701Z,88.10
2019-06-26T23:55:44.095Z,88.27
2019-06-26T23:58:12.866Z,88.20
